createdAt,value
2024-03-02T00:02:24.014Z,10.55
2024-03-02T00:04:54.929Z,11.13
2024-03-02T00:07:26.185Z,9.80
2024-03-02T00:09:57.377Z,10.63
2024-03-02T00:12:27.352Z,10.82
2024-03-02T00:14:56.935Z,10.25
2024-03-02T00:17:28.853Z,12.02
2024-03-02T00:19:59.816Z,11.43
2024-03-02T00:22:29.416Z,10.63
2024-03-02T00:24:59.305Z,11.00
2024-03-02T00:27:29.558Z,10.45
2024-03-02T00:29:59.138Z,10.98
2024-03-02T00:32:29.923Z,9.05
2024-03-02T00:35:00.866Z,10.35
2024-03-02T00:37:30.640Z,9.57
2024-03-02T00:40:00.226Z,9.10
2024-03-02T00:45:33.771Z,7.70
2024-03-02T00:48:03.309Z,8.20
2024-03-02T00:50:34.092Z,7.85
2024-03-02T00:53:04.011Z,7.63
2024-03-02T00:55:33.498Z,8.52
2024-03-02T00:58:03.484Z,8.55
2024-03-02T01:00:34.368Z,7.05
2024-03-02T01:03:04.511Z,8.30
2024-03-02T01:05:33.949Z,8.23
2024-03-02T01:08:03.310Z,7.25
2024-03-02T01:10:32.976Z,10.10
2024-03-02T01:13:02.723Z,14.23
2024-03-02T01:15:34.568Z,14.25
2024-03-02T01:18:04.280Z,14.93
2024-03-02T01:20:34.110Z,14.27
2024-03-02T01:23:04.428Z,12.00
2024-03-02T01:25:33.837Z,11.95
2024-03-02T01:28:03.407Z,11.45
2024-03-02T01:30:34.535Z,10.90
2024-03-02T01:33:06.672Z,13.23
2024-03-02T01:35:37.101Z,11.67
2024-03-02T01:38:08.436Z,12.23
2024-03-02T01:40:38.184Z,12.88
2024-03-02T01:43:08.708Z,12.07
2024-03-02T01:45:39.930Z,11.98
2024-03-02T01:48:10.696Z,12.18
2024-03-02T01:50:40.676Z,10.55
2024-03-02T01:53:12.354Z,8.90
2024-03-02T01:55:41.804Z,14.32
2024-03-02T01:58:11.332Z,12.40
2024-03-02T02:00:42.479Z,12.82
2024-03-02T02:03:12.218Z,9.43
2024-03-02T02:05:41.835Z,7.55
2024-03-02T02:08:11.607Z,8.98
2024-03-02T02:10:41.417Z,12.98
2024-03-02T02:13:11.255Z,10.63
2024-03-02T02:15:42.557Z,9.77
2024-03-02T02:18:12.378Z,8.55
2024-03-02T02:20:42.016Z,7.05
2024-03-02T02:23:15.075Z,6.57
2024-03-02T02:25:44.850Z,9.00
2024-03-02T02:28:14.392Z,11.75
2024-03-02T02:30:44.136Z,9.90
2024-03-02T02:33:14.074Z,10.45
2024-03-02T02:35:43.830Z,11.13
2024-03-02T02:38:14.990Z,12.13
2024-03-02T02:40:44.511Z,8.88
2024-03-02T02:43:14.094Z,9.02
2024-03-02T02:45:43.791Z,10.23
2024-03-02T02:48:13.421Z,9.90
2024-03-02T02:50:44.032Z,12.55
2024-03-02T02:53:14.983Z,12.68
2024-03-02T02:55:44.998Z,10.05
2024-03-02T02:58:14.730Z,10.23
2024-03-02T03:00:44.555Z,11.10
2024-03-02T03:03:14.179Z,9.35
2024-03-02T03:05:43.748Z,8.05
2024-03-02T03:08:14.671Z,7.35
2024-03-02T03:10:44.370Z,7.22
2024-03-02T03:13:14.083Z,10.15
2024-03-02T03:15:43.801Z,9.93
2024-03-02T03:18:13.407Z,10.18
2024-03-02T03:20:42.986Z,10.65
2024-03-02T03:23:16.718Z,13.60
2024-03-02T03:25:46.335Z,11.82
2024-03-02T03:28:15.877Z,12.93
2024-03-02T03:30:45.508Z,9.88
2024-03-02T03:33:15.529Z,10.77
2024-03-02T03:35:45.054Z,10.07
2024-03-02T03:38:15.971Z,11.18
2024-03-02T03:40:46.371Z,14.95
2024-03-02T03:46:33.593Z,15.57
2024-03-02T03:49:03.106Z,17.08
2024-03-02T03:51:32.692Z,15.73
2024-03-02T03:54:02.220Z,16.40
2024-03-02T03:56:31.851Z,14.88
2024-03-02T03:59:01.363Z,14.80
2024-03-02T04:01:32.960Z,14.63
2024-03-02T04:04:04.856Z,23.10
2024-03-02T04:06:34.878Z,21.17
2024-03-02T04:09:05.281Z,27.88
2024-03-02T04:11:35.081Z,25.05
2024-03-02T04:14:04.617Z,21.95
2024-03-02T04:16:35.837Z,26.02
2024-03-02T04:19:05.494Z,24.80
2024-03-02T04:21:35.118Z,25.80
2024-03-02T04:24:04.759Z,25.25
2024-03-02T04:26:34.293Z,23.92
2024-03-02T04:29:04.005Z,24.60
2024-03-02T04:31:35.171Z,20.77
2024-03-02T04:34:04.797Z,22.25
2024-03-02T04:36:34.693Z,23.20
2024-03-02T04:39:04.320Z,22.30
2024-03-02T04:41:33.801Z,22.58
2024-03-02T04:44:03.352Z,20.65
2024-03-02T04:46:34.291Z,19.33
2024-03-02T04:49:03.874Z,19.65
2024-03-02T04:51:33.461Z,17.70
2024-03-02T04:54:02.999Z,16.38
2024-03-02T04:56:46.084Z,16.60
2024-03-02T04:59:15.735Z,14.73
2024-03-02T05:01:46.811Z,12.20
2024-03-02T05:04:16.441Z,10.18
2024-03-02T05:06:46.538Z,8.30
2024-03-02T05:09:16.720Z,8.65
2024-03-02T05:12:04.470Z,8.15
2024-03-02T05:14:33.872Z,16.08
2024-03-02T05:17:04.794Z,16.80
2024-03-02T05:19:34.195Z,23.13
2024-03-02T05:22:04.536Z,9.50
2024-03-02T05:24:34.100Z,8.43
2024-03-02T05:27:05.100Z,8.00
2024-03-02T05:29:34.710Z,10.10
2024-03-02T05:32:05.935Z,9.93
2024-03-02T05:34:36.910Z,13.23
2024-03-02T05:37:06.968Z,12.95
2024-03-02T05:39:36.534Z,12.02
2024-03-02T05:42:06.072Z,11.25
2024-03-02T05:44:35.994Z,11.88
2024-03-02T05:47:10.157Z,10.15
2024-03-02T05:49:40.679Z,10.77
2024-03-02T05:52:10.498Z,10.18
2024-03-02T05:54:40.052Z,10.77
2024-03-02T05:57:33.443Z,10.40
2024-03-02T06:00:03.013Z,9.95
2024-03-02T06:02:35.689Z,9.68
2024-03-02T06:05:08.499Z,9.43
2024-03-02T06:07:37.986Z,9.73
2024-03-02T06:10:12.725Z,10.18
2024-03-02T06:12:43.805Z,10.38
2024-03-02T06:15:13.397Z,10.07
2024-03-02T06:17:44.945Z,14.55
2024-03-02T06:20:14.969Z,25.52
2024-03-02T06:22:44.352Z,28.45
2024-03-02T06:25:14.640Z,23.83
2024-03-02T06:27:44.335Z,25.27
2024-03-02T06:30:15.528Z,19.38
2024-03-02T06:32:46.531Z,12.82
2024-03-02T06:35:16.266Z,15.20
2024-03-02T06:37:45.932Z,23.90
2024-03-02T06:40:15.471Z,9.18
2024-03-02T06:42:45.022Z,21.67
2024-03-02T06:46:33.692Z,29.42
2024-03-02T06:49:04.210Z,32.85
2024-03-02T06:51:33.950Z,20.05
2024-03-02T06:54:03.465Z,4.80
2024-03-02T06:56:34.431Z,3.63
2024-03-02T06:59:03.921Z,4.25
2024-03-02T07:01:34.823Z,6.68
2024-03-02T07:04:04.538Z,10.43
2024-03-02T07:06:33.944Z,10.73
2024-03-02T07:09:03.838Z,9.75
2024-03-02T07:11:33.282Z,11.05
2024-03-02T07:14:03.194Z,9.13
2024-03-02T07:16:36.048Z,10.95
2024-03-02T07:19:05.680Z,12.07
2024-03-02T07:21:35.312Z,11.10
2024-03-02T07:24:05.682Z,11.60
2024-03-02T07:29:07.754Z,13.35
2024-03-02T07:31:38.605Z,10.15
2024-03-02T07:34:08.210Z,11.80
2024-03-02T07:36:38.442Z,12.63
2024-03-02T07:39:08.990Z,21.30
2024-03-02T07:41:38.477Z,15.07
2024-03-02T07:44:08.214Z,13.88
2024-03-02T07:46:39.179Z,14.13
2024-03-02T07:49:08.762Z,18.02
2024-03-02T07:51:38.822Z,14.60
2024-03-02T07:54:08.831Z,11.30
2024-03-02T07:56:38.288Z,10.70
2024-03-02T07:59:08.774Z,11.27
2024-03-02T08:01:39.886Z,13.07
2024-03-02T08:04:10.400Z,11.95
2024-03-02T08:06:39.930Z,11.00
2024-03-02T08:09:11.882Z,10.80
2024-03-02T08:11:41.393Z,10.57
2024-03-02T08:14:11.043Z,19.80
2024-03-02T08:16:42.003Z,11.30
2024-03-02T08:19:11.840Z,12.77
2024-03-02T08:21:41.753Z,14.63
2024-03-02T08:24:11.497Z,14.30
2024-03-02T08:26:41.072Z,16.67
2024-03-02T08:29:10.597Z,25.75
2024-03-02T08:31:42.418Z,16.10
2024-03-02T08:34:12.221Z,13.63
2024-03-02T08:36:41.818Z,9.95
2024-03-02T08:39:17.018Z,10.40
2024-03-02T08:41:48.446Z,12.15
2024-03-02T08:44:18.469Z,12.88
2024-03-02T08:46:49.586Z,13.02
2024-03-02T08:49:19.076Z,11.63
2024-03-02T08:51:56.304Z,10.15
2024-03-02T08:54:26.084Z,15.15
2024-03-02T08:56:55.539Z,14.73
2024-03-02T08:59:26.488Z,11.15
2024-03-02T09:01:57.497Z,12.48
2024-03-02T09:04:28.215Z,12.02
2024-03-02T09:06:58.577Z,11.82
2024-03-02T09:09:28.201Z,11.85
2024-03-02T09:11:59.312Z,11.02
2024-03-02T09:14:29.150Z,11.27
2024-03-02T09:17:00.234Z,13.60
2024-03-02T09:19:29.810Z,11.13
2024-03-02T09:22:00.354Z,10.82
2024-03-02T09:24:29.991Z,9.63
2024-03-02T09:26:59.650Z,10.85
2024-03-02T09:29:29.303Z,9.57
2024-03-02T09:32:00.235Z,9.50
2024-03-02T09:34:29.860Z,9.95
2024-03-02T09:36:59.468Z,10.40
2024-03-02T09:39:29.119Z,10.25
2024-03-02T09:41:59.080Z,9.85
2024-03-02T09:46:34.036Z,9.65
2024-03-02T09:49:03.588Z,9.90
2024-03-02T09:51:33.291Z,8.80
2024-03-02T09:54:12.959Z,8.88
2024-03-02T09:56:48.190Z,8.23
2024-03-02T09:59:18.936Z,9.00
2024-03-02T10:02:01.974Z,8.75
2024-03-02T10:04:33.257Z,7.43
2024-03-02T10:07:23.803Z,7.80
2024-03-02T10:09:53.617Z,7.13
2024-03-02T10:12:23.972Z,10.00
2024-03-02T10:15:08.931Z,13.02
2024-03-02T10:17:39.805Z,12.02
2024-03-02T10:20:27.589Z,11.93
2024-03-02T10:22:57.262Z,12.40
2024-03-02T10:25:43.472Z,9.10
2024-03-02T10:28:20.977Z,11.63
2024-03-02T10:30:53.519Z,12.32
2024-03-02T10:33:24.430Z,12.57
2024-03-02T10:35:54.326Z,10.38
2024-03-02T10:38:24.193Z,11.38
2024-03-02T10:40:54.272Z,10.70
2024-03-02T10:43:24.511Z,11.88
2024-03-02T10:45:55.409Z,11.55
2024-03-02T10:48:29.337Z,11.40
2024-03-02T10:51:02.865Z,11.40
2024-03-02T10:53:32.440Z,15.23
2024-03-02T10:56:06.265Z,9.88
2024-03-02T10:58:36.887Z,10.10
2024-03-02T11:01:07.370Z,11.02
2024-03-02T11:03:40.114Z,10.52
2024-03-02T11:08:43.772Z,11.15
2024-03-02T11:11:27.375Z,11.82
2024-03-02T11:14:00.840Z,13.38
2024-03-02T11:16:37.530Z,10.00
2024-03-02T11:19:13.900Z,10.88
2024-03-02T11:21:44.680Z,10.18
2024-03-02T11:24:38.092Z,11.65
2024-03-02T11:27:12.760Z,12.68
2024-03-02T11:29:50.212Z,10.35
2024-03-02T11:32:24.593Z,11.15
2024-03-02T11:34:56.815Z,9.65
2024-03-02T11:37:28.231Z,10.93
2024-03-02T11:39:58.053Z,11.65
2024-03-02T11:42:27.840Z,9.10
2024-03-02T11:45:00.734Z,10.13
2024-03-02T11:47:38.790Z,12.00
2024-03-02T11:50:11.746Z,12.95
2024-03-02T11:52:44.654Z,12.45
2024-03-02T11:55:16.351Z,13.32
2024-03-02T11:57:47.206Z,11.60
2024-03-02T12:00:21.822Z,13.32
2024-03-02T12:03:05.019Z,12.10
2024-03-02T12:05:37.013Z,12.43
2024-03-02T12:08:08.899Z,12.83
2024-03-02T12:10:39.721Z,11.43
2024-03-02T12:13:12.795Z,13.07
2024-03-02T12:15:43.054Z,12.77
2024-03-02T12:18:12.735Z,12.60
2024-03-02T12:20:43.763Z,11.65
2024-03-02T12:23:15.744Z,11.77
2024-03-02T12:25:46.159Z,11.88
2024-03-02T12:28:15.819Z,11.90
2024-03-02T12:30:45.804Z,10.68
2024-03-02T12:33:15.411Z,9.60
2024-03-02T12:35:46.372Z,10.05
2024-03-02T12:38:15.927Z,9.93
2024-03-02T12:40:45.476Z,12.18
2024-03-02T12:46:33.575Z,9.25
2024-03-02T12:49:12.442Z,10.50
2024-03-02T12:51:43.430Z,11.20
2024-03-02T12:54:13.983Z,10.38
2024-03-02T12:56:47.433Z,10.82
2024-03-02T12:59:22.771Z,11.52
2024-03-02T13:01:59.295Z,11.88
2024-03-02T13:04:29.818Z,11.75
2024-03-02T13:07:00.153Z,11.82
2024-03-02T13:09:30.712Z,12.95
2024-03-02T13:12:00.929Z,12.77
2024-03-02T13:14:30.423Z,15.68
2024-03-02T13:17:01.630Z,13.50
2024-03-02T13:19:32.596Z,14.25
2024-03-02T13:22:03.527Z,12.35
2024-03-02T13:24:34.421Z,14.65
2024-03-02T13:27:05.490Z,15.77
2024-03-02T13:29:35.054Z,13.63
2024-03-02T13:32:06.565Z,12.82
2024-03-02T13:34:36.116Z,12.25
2024-03-02T13:37:07.098Z,12.98
2024-03-02T13:39:41.564Z,14.68
2024-03-02T13:42:11.965Z,14.25
2024-03-02T13:44:41.799Z,15.45
2024-03-02T13:47:13.271Z,14.23
2024-03-02T13:49:45.284Z,14.48
2024-03-02T13:52:15.755Z,13.10
2024-03-02T13:54:48.076Z,11.68
2024-03-02T13:57:23.678Z,13.55
2024-03-02T13:59:56.006Z,12.45
2024-03-02T14:02:27.359Z,13.27
2024-03-02T14:04:56.800Z,13.18
2024-03-02T14:07:26.170Z,13.57
2024-03-02T14:09:55.753Z,12.18
2024-03-02T14:12:25.288Z,12.05
2024-03-02T14:14:56.962Z,11.68
2024-03-02T14:17:27.921Z,12.02
2024-03-02T14:19:58.500Z,12.00
2024-03-02T14:22:27.995Z,30.25
2024-03-02T14:24:57.637Z,12.35
2024-03-02T14:27:38.093Z,9.77
2024-03-02T14:30:17.330Z,9.18
2024-03-02T14:32:48.359Z,10.57
2024-03-02T14:35:18.032Z,12.05
2024-03-02T14:37:48.034Z,16.23
2024-03-02T14:40:17.891Z,16.48
2024-03-02T14:42:49.601Z,15.60
2024-03-02T14:45:19.212Z,18.77
2024-03-02T14:47:50.543Z,15.07
2024-03-02T14:50:20.266Z,16.92
2024-03-02T14:52:49.814Z,19.63
2024-03-02T14:55:19.395Z,14.25
2024-03-02T14:57:49.048Z,14.15
2024-03-02T15:00:19.808Z,21.63
2024-03-02T15:02:50.921Z,15.80
2024-03-02T15:05:20.477Z,16.52
2024-03-02T15:07:50.043Z,16.30
2024-03-02T15:10:19.937Z,16.35
2024-03-02T15:12:49.768Z,18.50
2024-03-02T15:15:19.378Z,19.00
2024-03-02T15:17:50.608Z,17.23
2024-03-02T15:20:21.858Z,15.30
2024-03-02T15:22:51.546Z,15.85
2024-03-02T15:25:21.077Z,16.25
2024-03-02T15:27:50.892Z,15.43
2024-03-02T15:30:20.458Z,17.30
2024-03-02T15:32:51.637Z,15.63
2024-03-02T15:35:21.099Z,13.50
2024-03-02T15:37:50.790Z,13.43
2024-03-02T15:40:20.586Z,14.13
2024-03-02T15:42:50.555Z,16.35
2024-03-02T15:46:33.290Z,15.50
2024-03-02T15:49:03.324Z,16.50
2024-03-02T15:51:32.965Z,15.38
2024-03-02T15:54:02.539Z,14.93
2024-03-02T15:56:32.315Z,12.98
2024-03-02T15:59:02.006Z,12.65
2024-03-02T16:01:32.935Z,13.60
2024-03-02T16:04:02.724Z,12.00
2024-03-02T16:06:32.435Z,12.77
2024-03-02T16:09:02.090Z,12.30
2024-03-02T16:11:31.527Z,12.05
2024-03-02T16:14:01.236Z,11.38
2024-03-02T16:16:32.234Z,12.73
2024-03-02T16:19:01.693Z,16.70
2024-03-02T16:21:31.382Z,15.07
2024-03-02T16:24:01.128Z,13.07
2024-03-02T16:26:31.715Z,13.18
2024-03-02T16:29:01.163Z,12.75
2024-03-02T16:31:32.158Z,12.38
2024-03-02T16:34:01.848Z,11.85
2024-03-02T16:36:34.096Z,13.80
2024-03-02T16:39:05.450Z,12.82
2024-03-02T16:41:35.037Z,12.60
2024-03-02T16:44:07.047Z,12.68
2024-03-02T16:46:39.872Z,13.85
2024-03-02T16:49:09.840Z,18.02
2024-03-02T16:51:42.625Z,13.57
2024-03-02T16:54:12.469Z,14.32
2024-03-02T16:56:42.464Z,19.00
2024-03-02T16:59:12.337Z,20.92
2024-03-02T17:01:43.219Z,25.63
2024-03-02T17:04:13.048Z,25.58
2024-03-02T17:06:42.723Z,21.42
2024-03-02T17:09:12.298Z,20.75
2024-03-02T17:11:43.067Z,16.70
2024-03-02T17:14:13.013Z,15.30
2024-03-02T17:16:43.922Z,18.50
2024-03-02T17:19:13.530Z,15.57
2024-03-02T17:21:43.122Z,17.35
2024-03-02T17:24:12.693Z,17.58
2024-03-02T17:26:42.475Z,16.13
2024-03-02T17:29:11.973Z,17.30
2024-03-02T17:31:43.269Z,17.42
2024-03-02T17:34:12.912Z,15.98
2024-03-02T17:36:42.889Z,15.82
2024-03-02T17:39:12.914Z,17.08
2024-03-02T17:41:42.458Z,21.38
2024-03-02T17:44:12.033Z,19.02
2024-03-02T17:46:43.830Z,19.88
2024-03-02T17:49:14.398Z,16.67
2024-03-02T17:51:44.821Z,17.20
2024-03-02T17:54:14.530Z,19.40
2024-03-02T17:56:43.889Z,17.85
2024-03-02T17:59:13.622Z,19.27
2024-03-02T18:01:44.756Z,18.40
2024-03-02T18:04:14.647Z,20.50
2024-03-02T18:06:44.310Z,20.27
2024-03-02T18:09:14.805Z,21.05
2024-03-02T18:11:46.272Z,14.82
2024-03-02T18:14:15.772Z,8.65
2024-03-02T18:16:46.578Z,10.63
2024-03-02T18:19:16.583Z,9.10
2024-03-02T18:21:47.488Z,9.82
2024-03-02T18:24:18.846Z,8.67
2024-03-02T18:26:48.354Z,8.63
2024-03-02T18:29:18.366Z,8.13
2024-03-02T18:31:49.412Z,8.73
2024-03-02T18:34:19.121Z,8.07
2024-03-02T18:36:48.889Z,8.93
2024-03-02T18:39:18.508Z,6.95
2024-03-02T18:41:47.932Z,8.43
2024-03-02T18:46:33.315Z,5.68
2024-03-02T18:49:02.981Z,5.95
2024-03-02T18:51:32.512Z,6.45
2024-03-02T18:54:02.251Z,6.05
2024-03-02T18:56:31.830Z,5.80
2024-03-02T18:59:01.416Z,5.90
2024-03-02T19:01:32.549Z,5.38
2024-03-02T19:04:02.182Z,6.30
2024-03-02T19:06:31.764Z,6.80
2024-03-02T19:09:01.366Z,5.63
2024-03-02T19:11:30.857Z,5.85
2024-03-02T19:14:00.374Z,4.85
2024-03-02T19:16:31.593Z,8.30
2024-03-02T19:19:01.257Z,5.57
2024-03-02T19:21:30.912Z,5.90
2024-03-02T19:24:01.036Z,5.88
2024-03-02T19:26:30.599Z,5.43
2024-03-02T19:29:00.192Z,9.13
2024-03-02T19:31:29.977Z,9.13
2024-03-02T19:34:01.029Z,7.03
2024-03-02T19:36:30.666Z,6.85
2024-03-02T19:39:00.374Z,6.93
2024-03-02T19:41:29.949Z,8.27
2024-03-02T19:43:59.450Z,6.70
2024-03-02T19:46:28.930Z,7.30
2024-03-02T19:48:59.886Z,6.75
2024-03-02T19:51:29.993Z,7.22
2024-03-02T19:54:00.770Z,5.10
2024-03-02T19:56:30.806Z,7.72
2024-03-02T19:59:00.786Z,5.68
2024-03-02T20:01:30.617Z,4.43
2024-03-02T20:04:01.819Z,4.95
2024-03-02T20:06:31.543Z,4.60
2024-03-02T20:09:01.148Z,3.95
2024-03-02T20:11:34.928Z,4.63
2024-03-02T20:14:04.779Z,3.90
2024-03-02T20:16:34.344Z,4.50
2024-03-02T20:19:05.819Z,4.78
2024-03-02T20:21:35.399Z,4.85
2024-03-02T20:24:04.885Z,4.65
2024-03-02T20:26:34.589Z,4.10
2024-03-02T20:29:04.868Z,4.10
2024-03-02T20:31:36.641Z,4.13
2024-03-02T20:34:07.790Z,5.28
2024-03-02T20:36:37.487Z,4.97
2024-03-02T20:39:07.926Z,5.03
2024-03-02T20:41:38.892Z,5.38
2024-03-02T20:44:08.569Z,5.43
2024-03-02T20:46:37.967Z,5.70
2024-03-02T20:49:08.955Z,5.15
2024-03-02T20:51:38.809Z,5.32
2024-03-02T20:54:08.412Z,4.88
2024-03-02T20:56:42.717Z,4.65
2024-03-02T20:59:12.451Z,4.18
2024-03-02T21:01:42.651Z,5.00
2024-03-02T21:04:16.778Z,5.20
2024-03-02T21:06:47.025Z,4.82
2024-03-02T21:09:16.718Z,5.70
2024-03-02T21:11:47.733Z,4.47
2024-03-02T21:14:17.477Z,5.53
2024-03-02T21:16:47.144Z,4.72
2024-03-02T21:19:18.201Z,5.75
2024-03-02T21:21:47.914Z,4.68
2024-03-02T21:24:17.432Z,4.45
2024-03-02T21:26:47.012Z,4.38
2024-03-02T21:29:21.363Z,4.40
2024-03-02T21:31:55.013Z,4.65
2024-03-02T21:34:25.973Z,5.05
2024-03-02T21:36:55.555Z,4.30
2024-03-02T21:39:32.150Z,4.50
2024-03-02T21:42:09.151Z,4.45
2024-03-02T21:46:33.234Z,4.07
2024-03-02T21:49:02.972Z,4.63
2024-03-02T21:51:32.683Z,5.25
2024-03-02T21:54:02.280Z,5.20
2024-03-02T21:56:31.928Z,5.20
2024-03-02T21:59:01.556Z,5.40
2024-03-02T22:01:32.654Z,5.90
2024-03-02T22:04:02.369Z,5.63
2024-03-02T22:06:32.179Z,5.25
2024-03-02T22:09:01.788Z,4.85
2024-03-02T22:11:31.416Z,4.47
2024-03-02T22:14:00.966Z,4.93
2024-03-02T22:16:32.149Z,5.45
2024-03-02T22:19:01.721Z,4.50
2024-03-02T22:21:31.351Z,5.93
2024-03-02T22:24:00.993Z,4.70
2024-03-02T22:26:30.568Z,5.35
2024-03-02T22:29:00.185Z,5.05
2024-03-02T22:31:30.563Z,5.88
2024-03-02T22:34:01.496Z,5.57
2024-03-02T22:36:31.012Z,5.60
2024-03-02T22:39:00.508Z,4.53
2024-03-02T22:41:30.010Z,4.90
2024-03-02T22:43:59.891Z,5.60
2024-03-02T22:46:29.441Z,4.05
2024-03-02T22:49:00.319Z,4.80
2024-03-02T22:51:30.454Z,4.88
2024-03-02T22:53:59.936Z,4.35
2024-03-02T22:56:29.472Z,4.70
2024-03-02T22:58:59.303Z,4.55
2024-03-02T23:01:28.898Z,4.78
2024-03-02T23:03:59.970Z,6.15
2024-03-02T23:06:29.507Z,12.82
2024-03-02T23:08:59.189Z,8.52
2024-03-02T23:11:28.985Z,5.75
2024-03-02T23:13:58.628Z,5.07
2024-03-02T23:16:30.322Z,4.68
2024-03-02T23:19:01.460Z,5.70
2024-03-02T23:21:31.073Z,5.30
2024-03-02T23:24:00.559Z,5.45
2024-03-02T23:26:30.203Z,5.65
2024-03-02T23:28:59.957Z,5.18
2024-03-02T23:31:29.933Z,5.90
2024-03-02T23:34:05.207Z,5.78
2024-03-02T23:36:34.930Z,6.57
2024-03-02T23:39:05.938Z,5.75
2024-03-02T23:41:35.492Z,6.18
2024-03-02T23:44:08.901Z,5.78
2024-03-02T23:46:38.557Z,6.03
2024-03-02T23:49:09.485Z,6.97
2024-03-02T23:51:39.015Z,7.78
2024-03-02T23:54:08.640Z,8.52
2024-03-02T23:56:38.080Z,8.82
2024-03-02T23:59:07.659Z,7.60
